M/V Le Conte — WZE4270 — position and weather

sailwx.info

Track history (hours):
 
Tides and Currents Weather Stations Pressure Air Temp Water Temp Dewpoint Dewpoint Depression Visibility Wind Speed Wind Dir Waves Ship Positions

M/V Le Conte

Owner: ALASKA MARINE HIGHWAY SYSTEM, JUNEAU, AK. More information available from US FCC via Universal Licensing System and Coast Guard Vessel Documentation Center.

Last reported at 2019-Jun-13 01:24 UTC. Time now 2019-Jun-16 15:08 UTC.
Position N 58°14' W 135°25'.

Type: Passenger vessel. MMSI: 338761000.

Date/timePositionNaut miles runAvg speedWind from/ knotsBaromVisibWave heightAir tempDewpointWater temp
2019-Jun-13 01:24N 58°14' W 135°25'615.3
2019-Jun-13 01:00N 58°17' W 135°35'815.2
2019-Jun-13 00:31N 58°22' W 135°45'2 3.1
2019-Jun-12 23:56N 58°23' W 135°44'0 0.0
2019-Jun-12 23:26N 58°23' W 135°44'2 5.5
2019-Jun-12 23:00N 58°21' W 135°44'815.9
2019-Jun-12 22:30N 58°15' W 135°34'7 0.2
2019-Jun-10 21:52N 58°08' W 135°28'510.8
2019-Jun-10 21:27N 58°13' W 135°29'715.7
2019-Jun-10 20:59N 58°17' W 135°40'613.2
2019-Jun-10 20:30N 58°23' W 135°44'0 0.1
2019-Jun-10 19:58N 58°23' W 135°44'0 0.0
2019-Jun-10 19:28N 58°23' W 135°44'0 0.5
2019-Jun-10 19:01N 58°23' W 135°44'813.0
2019-Jun-10 18:24N 58°16' W 135°35'8 0.7
2019-Jun-10 07:18N 58°14' W 135°21'415.0
2019-Jun-10 07:00N 58°16' W 135°29'814.9
2019-Jun-10 06:30N 58°19' W 135°42'4 7.3
2019-Jun-10 05:54N 58°23' W 135°44'0 0.0
2019-Jun-10 05:30N 58°23' W 135°44'3 7.0
2019-Jun-10 05:00N 58°22' W 135°50'713.8
2019-Jun-10 04:30N 58°20' W 136°02'714.2
2019-Jun-10 04:00N 58°17' W 136°15'1112.6
2019-Jun-10 03:07N 58°09' W 136°29'6 1.1
2019-Jun-09 21:56N 58°14' W 136°26'613.2
2019-Jun-09 21:29N 58°18' W 136°17'815.8
2019-Jun-09 21:00N 58°20' W 136°03'714.8
2019-Jun-09 20:31N 58°22' W 135°49'3 6.2
2019-Jun-09 19:58N 58°23' W 135°44'0 0.0
2019-Jun-09 19:28N 58°23' W 135°44'1 1.6
2019-Jun-09 19:00N 58°23' W 135°45'713.9
2019-Jun-09 18:30N 58°17' W 135°37'10 0.2
2019-Jun-08 00:15N 58°13' W 135°20'415.8
2019-Jun-08 00:01N 58°15' W 135°27'815.5
2019-Jun-07 23:29N 58°18' W 135°41'610.9
2019-Jun-07 22:58N 58°23' W 135°44'0 0.0
2019-Jun-07 22:28N 58°23' W 135°44'0 0.4
2019-Jun-07 22:01N 58°23' W 135°43'510.3
2019-Jun-07 21:30N 58°18' W 135°41'814.8
2019-Jun-07 20:58N 58°13' W 135°29'6 0.1
2019-Jun-06 01:15N 58°09' W 135°21'4 2.1
2019-Jun-05 23:09N 58°12' W 135°28'215.2
2019-Jun-05 23:00N 58°13' W 135°32'815.4
2019-Jun-05 22:30N 58°19' W 135°42'5 9.2
2019-Jun-05 21:59N 58°23' W 135°44'0 0.0
2019-Jun-05 21:29N 58°23' W 135°44'0 0.9
2019-Jun-05 21:00N 58°23' W 135°43'713.1
2019-Jun-05 20:30N 58°22' W 135°30'7 0.2
2019-Jun-03 23:16N 58°16' W 135°23'414.7
2019-Jun-03 23:00N 58°19' W 135°26'713.6
2019-Jun-03 22:30N 58°23' W 135°36'4 6.9
2019-Jun-03 21:56N 58°23' W 135°44'0 0.0
2019-Jun-03 21:26N 58°23' W 135°44'0 0.0
2019-Jun-03 20:59N 58°23' W 135°44'3 5.8
2019-Jun-03 20:30N 58°21' W 135°44'815.5
2019-Jun-03 20:01N 58°15' W 135°35'7 4.1
2019-Jun-03 18:13N 58°09' W 135°27'  
Track history (hours):
 
Tides and Currents Weather Stations Pressure Air Temp Water Temp Dewpoint Dewpoint Depression Visibility Wind Speed Wind Dir Waves Ship Positions

M/V Le Conte

Owner: ALASKA MARINE HIGHWAY SYSTEM, JUNEAU, AK. More information available from US FCC via Universal Licensing System and Coast Guard Vessel Documentation Center.

Last reported at 2019-Jun-13 01:24 UTC. Time now 2019-Jun-16 15:08 UTC.
Position N 58°14' W 135°25'.

Type: Passenger vessel. MMSI: 338761000.

Date/timePositionNaut miles runAvg speedWind from/ knotsBaromVisibWave heightAir tempDewpointWater temp
2019-Jun-13 01:24N 58°14' W 135°25'615.3
2019-Jun-13 01:00N 58°17' W 135°35'815.2
2019-Jun-13 00:31N 58°22' W 135°45'2 3.1
2019-Jun-12 23:56N 58°23' W 135°44'0 0.0
2019-Jun-12 23:26N 58°23' W 135°44'2 5.5
2019-Jun-12 23:00N 58°21' W 135°44'815.9
2019-Jun-12 22:30N 58°15' W 135°34'7 0.2
2019-Jun-10 21:52N 58°08' W 135°28'510.8
2019-Jun-10 21:27N 58°13' W 135°29'715.7
2019-Jun-10 20:59N 58°17' W 135°40'613.2
2019-Jun-10 20:30N 58°23' W 135°44'0 0.1
2019-Jun-10 19:58N 58°23' W 135°44'0 0.0
2019-Jun-10 19:28N 58°23' W 135°44'0 0.5
2019-Jun-10 19:01N 58°23' W 135°44'813.0
2019-Jun-10 18:24N 58°16' W 135°35'8 0.7
2019-Jun-10 07:18N 58°14' W 135°21'415.0
2019-Jun-10 07:00N 58°16' W 135°29'814.9
2019-Jun-10 06:30N 58°19' W 135°42'4 7.3
2019-Jun-10 05:54N 58°23' W 135°44'0 0.0
2019-Jun-10 05:30N 58°23' W 135°44'3 7.0
2019-Jun-10 05:00N 58°22' W 135°50'713.8
2019-Jun-10 04:30N 58°20' W 136°02'714.2
2019-Jun-10 04:00N 58°17' W 136°15'1112.6
2019-Jun-10 03:07N 58°09' W 136°29'6 1.1
2019-Jun-09 21:56N 58°14' W 136°26'613.2
2019-Jun-09 21:29N 58°18' W 136°17'815.8
2019-Jun-09 21:00N 58°20' W 136°03'714.8
2019-Jun-09 20:31N 58°22' W 135°49'3 6.2
2019-Jun-09 19:58N 58°23' W 135°44'0 0.0
2019-Jun-09 19:28N 58°23' W 135°44'1 1.6
2019-Jun-09 19:00N 58°23' W 135°45'713.9
2019-Jun-09 18:30N 58°17' W 135°37'10 0.2
2019-Jun-08 00:15N 58°13' W 135°20'415.8
2019-Jun-08 00:01N 58°15' W 135°27'815.5
2019-Jun-07 23:29N 58°18' W 135°41'610.9
2019-Jun-07 22:58N 58°23' W 135°44'0 0.0
2019-Jun-07 22:28N 58°23' W 135°44'0 0.4
2019-Jun-07 22:01N 58°23' W 135°43'510.3
2019-Jun-07 21:30N 58°18' W 135°41'814.8
2019-Jun-07 20:58N 58°13' W 135°29'6 0.1
2019-Jun-06 01:15N 58°09' W 135°21'4 2.1
2019-Jun-05 23:09N 58°12' W 135°28'215.2
2019-Jun-05 23:00N 58°13' W 135°32'815.4
2019-Jun-05 22:30N 58°19' W 135°42'5 9.2
2019-Jun-05 21:59N 58°23' W 135°44'0 0.0
2019-Jun-05 21:29N 58°23' W 135°44'0 0.9
2019-Jun-05 21:00N 58°23' W 135°43'713.1
2019-Jun-05 20:30N 58°22' W 135°30'7 0.2
2019-Jun-03 23:16N 58°16' W 135°23'414.7
2019-Jun-03 23:00N 58°19' W 135°26'713.6
2019-Jun-03 22:30N 58°23' W 135°36'4 6.9
2019-Jun-03 21:56N 58°23' W 135°44'0 0.0
2019-Jun-03 21:26N 58°23' W 135°44'0 0.0
2019-Jun-03 20:59N 58°23' W 135°44'3 5.8
2019-Jun-03 20:30N 58°21' W 135°44'815.5
2019-Jun-03 20:01N 58°15' W 135°35'7 4.1
2019-Jun-03 18:13N 58°09' W 135°27'  

Dump ship's entire track history